sensor_id;sensor_type;location;lat;lon;timestamp;pressure;altitude;pressure_sealevel;temperature;humidity
42621;BME280;28252;53.336;-6.298;2023-02-19T00:00:24;101950.03;;;23.24;80.95
42621;BME280;28252;53.336;-6.298;2023-02-19T00:00:55;101959.03;;;23.25;80.53
42621;BME280;28252;53.336;-6.298;2023-02-19T00:01:33;101951.88;;;23.24;80.77
42621;BME280;28252;53.336;-6.298;2023-02-19T00:02:06;101955.47;;;23.24;81.02
42621;BME280;28252;53.336;-6.298;2023-02-19T00:02:37;101956.47;;;23.23;81.03
42621;BME280;28252;53.336;-6.298;2023-02-19T00:03:13;101966.34;;;23.24;80.63
42621;BME280;28252;53.336;-6.298;2023-02-19T00:03:47;101964.63;;;23.23;81.28
42621;BME280;28252;53.336;-6.298;2023-02-19T00:04:24;101960.19;;;23.22;80.71
42621;BME280;28252;53.336;-6.298;2023-02-19T00:05:00;101965.63;;;23.22;81.02
42621;BME280;28252;53.336;-6.298;2023-02-19T00:05:33;101957.47;;;23.22;81.06
42621;BME280;28252;53.336;-6.298;2023-02-19T00:06:11;101966.66;;;23.21;81.22
42621;BME280;28252;53.336;-6.298;2023-02-19T00:06:43;101963.09;;;23.21;81.37
42621;BME280;28252;53.336;-6.298;2023-02-19T00:07:19;101970.38;;;23.20;80.95
42621;BME280;28252;53.336;-6.298;2023-02-19T00:07:53;101966.81;;;23.20;80.72
42621;BME280;28252;53.336;-6.298;2023-02-19T00:08:29;101964.94;;;23.20;81.47
42621;BME280;28252;53.336;-6.298;2023-02-19T00:09:00;101968.69;;;23.19;80.92
42621;BME280;28252;53.336;-6.298;2023-02-19T00:09:32;101968.69;;;23.19;81.58
42621;BME280;28252;53.336;-6.298;2023-02-19T00:10:05;101972.41;;;23.18;81.35
42621;BME280;28252;53.336;-6.298;2023-02-19T00:10:39;101963.56;;;23.16;80.68
42621;BME280;28252;53.336;-6.298;2023-02-19T00:11:11;101971.72;;;23.16;81.22
42621;BME280;28252;53.336;-6.298;2023-02-19T00:11:47;101973.59;;;23.16;81.09
42621;BME280;28252;53.336;-6.298;2023-02-19T00:12:20;101976.31;;;23.16;81.45
42621;BME280;28252;53.336;-6.298;2023-02-19T00:12:51;101979.88;;;23.16;81.30
42621;BME280;28252;53.336;-6.298;2023-02-19T00:13:24;101978.16;;;23.15;82.02
42621;BME280;28252;53.336;-6.298;2023-02-19T00:14:02;101983.75;;;23.13;81.71
42621;BME280;28252;53.336;-6.298;2023-02-19T00:14:39;101977.47;;;23.13;81.02
42621;BME280;28252;53.336;-6.298;2023-02-19T00:15:13;101980.19;;;23.13;81.58
42621;BME280;28252;53.336;-6.298;2023-02-19T00:15:46;101984.78;;;23.12;81.15
42621;BME280;28252;53.336;-6.298;2023-02-19T00:16:23;101984.78;;;23.12;81.42
42621;BME280;28252;53.336;-6.298;2023-02-19T00:17:01;101991.06;;;23.13;81.98
42621;BME280;28252;53.336;-6.298;2023-02-19T00:17:33;101986.63;;;23.12;81.23
42621;BME280;28252;53.336;-6.298;2023-02-19T00:18:09;101989.34;;;23.12;81.39
42621;BME280;28252;53.336;-6.298;2023-02-19T00:18:44;101993.09;;;23.11;80.96
42621;BME280;28252;53.336;-6.298;2023-02-19T00:19:19;101986.97;;;23.09;81.43
42621;BME280;28252;53.336;-6.298;2023-02-19T00:19:52;101998.81;;;23.08;81.45
42621;BME280;28252;53.336;-6.298;2023-02-19T00:20:23;101989.84;;;23.07;81.98
42621;BME280;28252;53.336;-6.298;2023-02-19T00:20:59;102004.25;;;23.08;81.30
42621;BME280;28252;53.336;-6.298;2023-02-19T00:21:34;101996.28;;;23.06;81.61
42621;BME280;28252;53.336;-6.298;2023-02-19T00:22:10;101999.09;;;23.05;81.67
42621;BME280;28252;53.336;-6.298;2023-02-19T00:22:41;101999.09;;;23.05;81.58
42621;BME280;28252;53.336;-6.298;2023-02-19T00:23:16;101993.66;;;23.05;81.89
42621;BME280;28252;53.336;-6.298;2023-02-19T00:23:53;101995.69;;;23.03;81.80
42621;BME280;28252;53.336;-6.298;2023-02-19T00:24:26;101999.25;;;23.03;81.88
42621;BME280;28252;53.336;-6.298;2023-02-19T00:24:57;102000.13;;;23.04;81.22
42621;BME280;28252;53.336;-6.298;2023-02-19T00:25:30;102000.28;;;23.02;81.59
42621;BME280;28252;53.336;-6.298;2023-02-19T00:26:07;101995.00;;;23.01;81.30
42621;BME280;28252;53.336;-6.298;2023-02-19T00:26:47;101998.41;;;23.03;80.87
42621;BME280;28252;53.336;-6.298;2023-02-19T00:27:25;101997.72;;;23.01;81.51
42621;BME280;28252;53.336;-6.298;2023-02-19T00:28:01;101997.72;;;23.01;81.60
42621;BME280;28252;53.336;-6.298;2023-02-19T00:28:32;102000.44;;;23.01;81.48
42621;BME280;28252;53.336;-6.298;2023-02-19T00:29:04;101998.72;;;23.00;81.54
42621;BME280;28252;53.336;-6.298;2023-02-19T00:29:37;102001.44;;;23.00;81.71
42621;BME280;28252;53.336;-6.298;2023-02-19T00:30:10;102001.44;;;23.00;81.49
42621;BME280;28252;53.336;-6.298;2023-02-19T00:30:44;102005.19;;;22.99;81.99
42621;BME280;28252;53.336;-6.298;2023-02-19T00:31:50;101997.88;;;22.99;82.11
42621;BME280;28252;53.336;-6.298;2023-02-19T00:32:26;102000.59;;;22.99;82.28
42621;BME280;28252;53.336;-6.298;2023-02-19T00:33:02;102008.91;;;22.98;82.49
42621;BME280;28252;53.336;-6.298;2023-02-19T00:33:33;102006.19;;;22.98;82.22
42621;BME280;28252;53.336;-6.298;2023-02-19T00:34:09;102004.63;;;22.95;82.30
42621;BME280;28252;53.336;-6.298;2023-02-19T00:34:47;102000.91;;;22.96;82.02
42621;BME280;28252;53.336;-6.298;2023-02-19T00:35:20;101998.50;;;22.93;82.69
42621;BME280;28252;53.336;-6.298;2023-02-19T00:35:58;102002.41;;;22.90;82.21
42621;BME280;28252;53.336;-6.298;2023-02-19T00:36:35;101996.97;;;22.90;82.88
42621;BME280;28252;53.336;-6.298;2023-02-19T00:37:11;101997.97;;;22.89;83.30
42621;BME280;28252;53.336;-6.298;2023-02-19T00:37:50;101998.81;;;22.90;82.62
42621;BME280;28252;53.336;-6.298;2023-02-19T00:38:23;101993.56;;;22.88;82.87
42621;BME280;28252;53.336;-6.298;2023-02-19T00:39:00;101988.97;;;22.89;83.48
42621;BME280;28252;53.336;-6.298;2023-02-19T00:39:31;101989.13;;;22.87;83.61
42621;BME280;28252;53.336;-6.298;2023-02-19T00:40:04;101986.41;;;22.87;83.09
42621;BME280;28252;53.336;-6.298;2023-02-19T00:40:37;101986.41;;;22.87;83.03
42621;BME280;28252;53.336;-6.298;2023-02-19T00:41:11;101992.84;;;22.86;83.18
42621;BME280;28252;53.336;-6.298;2023-02-19T00:41:55;101991.16;;;22.85;83.00
42621;BME280;28252;53.336;-6.298;2023-02-19T00:42:33;101985.03;;;22.83;83.68
42621;BME280;28252;53.336;-6.298;2023-02-19T00:43:06;101993.00;;;22.85;83.38
42621;BME280;28252;53.336;-6.298;2023-02-19T00:43:37;101983.31;;;22.82;83.15
42621;BME280;28252;53.336;-6.298;2023-02-19T00:44:10;101985.03;;;22.83;83.05
42621;BME280;28252;53.336;-6.298;2023-02-19T00:44:46;101986.03;;;22.82;83.99
42621;BME280;28252;53.336;-6.298;2023-02-19T00:45:22;101980.59;;;22.82;83.88
42621;BME280;28252;53.336;-6.298;2023-02-19T00:45:58;101980.75;;;22.81;83.97
42621;BME280;28252;53.336;-6.298;2023-02-19T00:46:32;101982.63;;;22.80;83.43
42621;BME280;28252;53.336;-6.298;2023-02-19T00:47:08;101989.75;;;22.81;83.59
42621;BME280;28252;53.336;-6.298;2023-02-19T00:47:42;101989.88;;;22.80;83.99
42621;BME280;28252;53.336;-6.298;2023-02-19T00:48:16;101994.47;;;22.79;84.42
42621;BME280;28252;53.336;-6.298;2023-02-19T00:48:52;101997.34;;;22.78;83.53
42621;BME280;28252;53.336;-6.298;2023-02-19T00:49:28;101998.19;;;22.78;84.26
42621;BME280;28252;53.336;-6.298;2023-02-19T00:50:01;101995.81;;;22.75;84.02
42621;BME280;28252;53.336;-6.298;2023-02-19T00:50:34;101994.09;;;22.74;83.97
42621;BME280;28252;53.336;-6.298;2023-02-19T00:51:07;102000.53;;;22.73;83.41
42621;BME280;28252;53.336;-6.298;2023-02-19T00:51:41;102009.69;;;22.72;83.91
42621;BME280;28252;53.336;-6.298;2023-02-19T00:52:14;102008.84;;;22.71;84.03
42621;BME280;28252;53.336;-6.298;2023-02-19T00:52:47;102008.84;;;22.71;83.77
42621;BME280;28252;53.336;-6.298;2023-02-19T00:53:20;102009.16;;;22.68;84.14
42621;BME280;28252;53.336;-6.298;2023-02-19T00:53:56;102014.59;;;22.68;83.97
42621;BME280;28252;53.336;-6.298;2023-02-19T00:54:29;102015.44;;;22.69;84.24
42621;BME280;28252;53.336;-6.298;2023-02-19T00:55:02;102026.28;;;22.69;84.79
42621;BME280;28252;53.336;-6.298;2023-02-19T00:55:35;102019.16;;;22.68;84.38
42621;BME280;28252;53.336;-6.298;2023-02-19T00:56:09;102018.31;;;22.67;84.47
42621;BME280;28252;53.336;-6.298;2023-02-19T00:56:40;102018.31;;;22.67;84.44
42621;BME280;28252;53.336;-6.298;2023-02-19T00:57:16;102022.03;;;22.66;84.94
42621;BME280;28252;53.336;-6.298;2023-02-19T00:57:51;102025.75;;;22.65;84.93
42621;BME280;28252;53.336;-6.298;2023-02-19T00:58:22;102021.47;;;22.63;85.05
42621;BME280;28252;53.336;-6.298;2023-02-19T00:58:55;102030.34;;;22.65;84.99
42621;BME280;28252;53.336;-6.298;2023-02-19T00:59:33;102032.34;;;22.63;84.51
42621;BME280;28252;53.336;-6.298;2023-02-19T01:00:08;102025.91;;;22.64;84.94
42621;BME280;28252;53.336;-6.298;2023-02-19T01:00:46;102028.63;;;22.64;84.52
42621;BME280;28252;53.336;-6.298;2023-02-19T01:01:20;102034.06;;;22.64;84.92
42621;BME280;28252;53.336;-6.298;2023-02-19T01:01:56;102027.94;;;22.62;85.37
42621;BME280;28252;53.336;-6.298;2023-02-19T01:02:29;102030.66;;;22.62;84.93
42621;BME280;28252;53.336;-6.298;2023-02-19T01:03:07;102029.81;;;22.61;85.15
42621;BME280;28252;53.336;-6.298;2023-02-19T01:03:39;102030.66;;;22.62;84.57
42621;BME280;28252;53.336;-6.298;2023-02-19T01:04:12;102025.22;;;22.62;85.05
42621;BME280;28252;53.336;-6.298;2023-02-19T01:04:43;102034.34;;;22.61;84.20
42621;BME280;28252;53.336;-6.298;2023-02-19T01:05:16;102024.38;;;22.61;84.28
42621;BME280;28252;53.336;-6.298;2023-02-19T01:05:52;102023.78;;;22.57;85.53
42621;BME280;28252;53.336;-6.298;2023-02-19T01:06:27;102026.50;;;22.57;85.64
42621;BME280;28252;53.336;-6.298;2023-02-19T01:07:00;102022.09;;;22.56;85.79
42621;BME280;28252;53.336;-6.298;2023-02-19T01:07:37;102025.81;;;22.55;85.68
42621;BME280;28252;53.336;-6.298;2023-02-19T01:08:10;102025.81;;;22.55;85.20
42621;BME280;28252;53.336;-6.298;2023-02-19T01:08:43;102025.81;;;22.55;85.20
42621;BME280;28252;53.336;-6.298;2023-02-19T01:09:19;102024.97;;;22.55;85.47
42621;BME280;28252;53.336;-6.298;2023-02-19T01:09:52;102024.97;;;22.55;85.07
42621;BME280;28252;53.336;-6.298;2023-02-19T01:10:23;102026.69;;;22.56;85.22
42621;BME280;28252;53.336;-6.298;2023-02-19T01:10:57;102025.50;;;22.59;84.94
42621;BME280;28252;53.336;-6.298;2023-02-19T01:11:33;102031.25;;;22.55;85.23
42621;BME280;28252;53.336;-6.298;2023-02-19T01:12:04;102029.56;;;22.54;85.04
42621;BME280;28252;53.336;-6.298;2023-02-19T01:12:37;102021.56;;;22.53;85.63
42621;BME280;28252;53.336;-6.298;2023-02-19T01:13:15;102022.41;;;22.53;87.04
42621;BME280;28252;53.336;-6.298;2023-02-19T01:13:51;102028.69;;;22.54;86.10
42621;BME280;28252;53.336;-6.298;2023-02-19T01:14:22;102026.13;;;22.52;86.00
42621;BME280;28252;53.336;-6.298;2023-02-19T01:14:58;102016.97;;;22.53;85.79
42621;BME280;28252;53.336;-6.298;2023-02-19T01:15:33;102016.97;;;22.53;85.78
42621;BME280;28252;53.336;-6.298;2023-02-19T01:16:19;102020.69;;;22.52;86.20
42621;BME280;28252;53.336;-6.298;2023-02-19T01:16:54;102020.69;;;22.52;86.00
42621;BME280;28252;53.336;-6.298;2023-02-19T01:17:26;102016.13;;;22.53;86.00
42621;BME280;28252;53.336;-6.298;2023-02-19T01:17:59;102021.56;;;22.53;86.10
42621;BME280;28252;53.336;-6.298;2023-02-19T01:18:35;102017.97;;;22.52;85.84
42621;BME280;28252;53.336;-6.298;2023-02-19T01:19:06;102016.13;;;22.53;85.59
42621;BME280;28252;53.336;-6.298;2023-02-19T01:19:37;102018.84;;;22.53;85.62
42621;BME280;28252;53.336;-6.298;2023-02-19T01:20:08;102014.41;;;22.52;85.56
42621;BME280;28252;53.336;-6.298;2023-02-19T01:20:43;102019.00;;;22.51;85.42
42621;BME280;28252;53.336;-6.298;2023-02-19T01:21:18;102019.00;;;22.51;85.15
42621;BME280;28252;53.336;-6.298;2023-02-19T01:21:52;102022.72;;;22.50;85.46
42621;BME280;28252;53.336;-6.298;2023-02-19T01:22:23;102023.75;;;22.49;85.89
42621;BME280;28252;53.336;-6.298;2023-02-19T01:22:56;102020.88;;;22.51;85.37
42621;BME280;28252;53.336;-6.298;2023-02-19T01:23:29;102014.56;;;22.50;85.14
42621;BME280;28252;53.336;-6.298;2023-02-19T01:24:00;102022.56;;;22.52;85.16
42621;BME280;28252;53.336;-6.298;2023-02-19T01:24:34;102022.72;;;22.50;85.42
42621;BME280;28252;53.336;-6.298;2023-02-19T01:25:08;102022.72;;;22.50;85.09
42621;BME280;28252;53.336;-6.298;2023-02-19T01:25:43;102017.28;;;22.50;85.31
42621;BME280;28252;53.336;-6.298;2023-02-19T01:26:18;102019.16;;;22.50;85.80
42621;BME280;28252;53.336;-6.298;2023-02-19T01:26:52;102017.28;;;22.50;85.74
42621;BME280;28252;53.336;-6.298;2023-02-19T01:27:25;102019.16;;;22.50;85.14
42621;BME280;28252;53.336;-6.298;2023-02-19T01:28:03;102011.84;;;22.50;85.38
42621;BME280;28252;53.336;-6.298;2023-02-19T01:28:39;102013.88;;;22.48;85.97
42621;BME280;28252;53.336;-6.298;2023-02-19T01:29:10;102009.13;;;22.50;85.69
42621;BME280;28252;53.336;-6.298;2023-02-19T01:29:46;102004.00;;;22.47;85.20
42621;BME280;28252;53.336;-6.298;2023-02-19T01:30:21;102009.28;;;22.49;85.63
42621;BME280;28252;53.336;-6.298;2023-02-19T01:30:54;102012.16;;;22.47;85.37
42621;BME280;28252;53.336;-6.298;2023-02-19T01:31:27;102008.75;;;22.45;86.08
42621;BME280;28252;53.336;-6.298;2023-02-19T01:32:05;102000.59;;;22.45;86.04
42621;BME280;28252;53.336;-6.298;2023-02-19T01:32:36;102003.31;;;22.45;85.83
42621;BME280;28252;53.336;-6.298;2023-02-19T01:33:12;101999.75;;;22.45;85.44
42621;BME280;28252;53.336;-6.298;2023-02-19T01:33:54;101999.75;;;22.45;85.39
42621;BME280;28252;53.336;-6.298;2023-02-19T01:34:26;101997.88;;;22.45;85.79
42621;BME280;28252;53.336;-6.298;2023-02-19T01:35:01;102009.78;;;22.44;85.92
42621;BME280;28252;53.336;-6.298;2023-02-19T01:35:37;101999.06;;;22.43;85.55
42621;BME280;28252;53.336;-6.298;2023-02-19T01:36:09;102000.91;;;22.42;85.78
42621;BME280;28252;53.336;-6.298;2023-02-19T01:36:43;102005.63;;;22.40;86.28
42621;BME280;28252;53.336;-6.298;2023-02-19T01:37:16;102007.34;;;22.41;85.65
42621;BME280;28252;53.336;-6.298;2023-02-19T01:37:47;102010.91;;;22.42;86.14
42621;BME280;28252;53.336;-6.298;2023-02-19T01:38:18;102005.63;;;22.40;85.71
42621;BME280;28252;53.336;-6.298;2023-02-19T01:38:51;102004.78;;;22.40;85.89
42621;BME280;28252;53.336;-6.298;2023-02-19T01:39:24;102002.06;;;22.40;86.24
42621;BME280;28252;53.336;-6.298;2023-02-19T01:39:57;102007.66;;;22.38;85.88
42621;BME280;28252;53.336;-6.298;2023-02-19T01:40:28;102012.09;;;22.39;85.55
42621;BME280;28252;53.336;-6.298;2023-02-19T01:41:05;102013.78;;;22.40;85.30
42621;BME280;28252;53.336;-6.298;2023-02-19T01:41:39;102009.38;;;22.39;84.85
42621;BME280;28252;53.336;-6.298;2023-02-19T01:42:12;102021.91;;;22.40;85.46
42621;BME280;28252;53.336;-6.298;2023-02-19T01:42:47;102013.94;;;22.38;85.46
42621;BME280;28252;53.336;-6.298;2023-02-19T01:43:18;102015.81;;;22.38;85.84
42621;BME280;28252;53.336;-6.298;2023-02-19T01:46:01;102038.84;;;22.34;86.29
42621;BME280;28252;53.336;-6.298;2023-02-19T01:46:33;102023.53;;;22.33;85.82
42621;BME280;28252;53.336;-6.298;2023-02-19T01:47:07;102029.97;;;22.32;86.40
42621;BME280;28252;53.336;-6.298;2023-02-19T01:47:40;102026.41;;;22.31;86.48
42621;BME280;28252;53.336;-6.298;2023-02-19T01:48:13;102036.41;;;22.31;86.92
42621;BME280;28252;53.336;-6.298;2023-02-19T01:48:50;102033.72;;;22.31;86.70
42621;BME280;28252;53.336;-6.298;2023-02-19T01:49:29;102032.81;;;22.30;86.68
42621;BME280;28252;53.336;-6.298;2023-02-19T01:50:07;102032.00;;;22.30;86.67
42621;BME280;28252;53.336;-6.298;2023-02-19T01:50:43;102031.13;;;22.29;86.28
42621;BME280;28252;53.336;-6.298;2023-02-19T01:51:17;102032.81;;;22.30;86.08
42621;BME280;28252;53.336;-6.298;2023-02-19T01:51:59;102030.28;;;22.29;85.97
42621;BME280;28252;53.336;-6.298;2023-02-19T01:52:35;102030.28;;;22.29;86.07
42621;BME280;28252;53.336;-6.298;2023-02-19T01:53:06;102030.28;;;22.29;86.38
42621;BME280;28252;53.336;-6.298;2023-02-19T01:53:42;102035.84;;;22.27;86.25
42621;BME280;28252;53.336;-6.298;2023-02-19T01:54:15;102030.56;;;22.26;85.97
42621;BME280;28252;53.336;-6.298;2023-02-19T01:54:54;102029.69;;;22.25;86.92
42621;BME280;28252;53.336;-6.298;2023-02-19T01:55:28;102030.56;;;22.26;86.73
42621;BME280;28252;53.336;-6.298;2023-02-19T01:56:03;102030.56;;;22.26;86.71
42621;BME280;28252;53.336;-6.298;2023-02-19T01:56:37;102027.84;;;22.26;86.83
42621;BME280;28252;53.336;-6.298;2023-02-19T01:57:13;102026.81;;;22.27;86.51
42621;BME280;28252;53.336;-6.298;2023-02-19T01:57:47;102025.97;;;22.26;86.12
42621;BME280;28252;53.336;-6.298;2023-02-19T01:58:20;102030.56;;;22.26;87.30
42621;BME280;28252;53.336;-6.298;2023-02-19T01:58:52;102027.84;;;22.26;86.63
42621;BME280;28252;53.336;-6.298;2023-02-19T01:59:24;102031.56;;;22.25;86.70
42621;BME280;28252;53.336;-6.298;2023-02-19T02:00:00;102025.28;;;22.24;86.80
42621;BME280;28252;53.336;-6.298;2023-02-19T02:00:43;102038.00;;;22.24;87.17
42621;BME280;28252;53.336;-6.298;2023-02-19T02:01:16;102034.56;;;22.22;86.56
42621;BME280;28252;53.336;-6.298;2023-02-19T02:01:53;102037.28;;;22.22;86.50
42621;BME280;28252;53.336;-6.298;2023-02-19T02:02:27;102043.72;;;22.20;86.64
42621;BME280;28252;53.336;-6.298;2023-02-19T02:03:02;102035.59;;;22.20;86.66
42621;BME280;28252;53.336;-6.298;2023-02-19T02:03:39;102040.28;;;22.18;87.26
42621;BME280;28252;53.336;-6.298;2023-02-19T02:04:14;102040.28;;;22.18;87.38
42621;BME280;28252;53.336;-6.298;2023-02-19T02:04:49;102043.88;;;22.19;86.77
42621;BME280;28252;53.336;-6.298;2023-02-19T02:05:24;102037.56;;;22.18;87.31
42621;BME280;28252;53.336;-6.298;2023-02-19T02:07:13;102042.84;;;22.20;86.93
42621;BME280;28252;53.336;-6.298;2023-02-19T02:08:07;102044.72;;;22.19;87.83
42621;BME280;28252;53.336;-6.298;2023-02-19T02:08:57;102044.88;;;22.18;87.46
42621;BME280;28252;53.336;-6.298;2023-02-19T02:09:47;102044.03;;;22.17;87.05
42621;BME280;28252;53.336;-6.298;2023-02-19T02:10:44;102046.88;;;22.16;87.44
42621;BME280;28252;53.336;-6.298;2023-02-19T02:11:20;102045.31;;;22.13;87.97
42621;BME280;28252;53.336;-6.298;2023-02-19T02:11:58;102033.75;;;22.11;88.77
42621;BME280;28252;53.336;-6.298;2023-02-19T02:12:35;102034.78;;;22.10;88.86
42621;BME280;28252;53.336;-6.298;2023-02-19T02:13:08;102034.78;;;22.10;87.86
42621;BME280;28252;53.336;-6.298;2023-02-19T02:13:42;102036.47;;;22.11;87.73
42621;BME280;28252;53.336;-6.298;2023-02-19T02:14:13;102031.19;;;22.10;88.51
42621;BME280;28252;53.336;-6.298;2023-02-19T02:14:50;102030.34;;;22.09;87.97
42621;BME280;28252;53.336;-6.298;2023-02-19T02:15:25;102024.94;;;22.09;87.89
42621;BME280;28252;53.336;-6.298;2023-02-19T02:17:27;102025.63;;;22.11;88.17
42621;BME280;28252;53.336;-6.298;2023-02-19T02:20:52;102010.22;;;22.12;87.77
42621;BME280;28252;53.336;-6.298;2023-02-19T02:22:22;102014.06;;;22.09;88.14
42621;BME280;28252;53.336;-6.298;2023-02-19T02:25:51;102026.94;;;22.07;87.94
42621;BME280;28252;53.336;-6.298;2023-02-19T02:27:27;102038.78;;;22.06;88.92
42621;BME280;28252;53.336;-6.298;2023-02-19T02:29:42;102045.25;;;22.05;88.14
42621;BME280;28252;53.336;-6.298;2023-02-19T02:30:24;102054.38;;;22.04;89.61
42621;BME280;28252;53.336;-6.298;2023-02-19T02:31:22;102054.38;;;22.04;88.29
42621;BME280;28252;53.336;-6.298;2023-02-19T02:31:59;102058.94;;;22.04;88.42
42621;BME280;28252;53.336;-6.298;2023-02-19T02:32:45;102058.81;;;22.05;88.50
42621;BME280;28252;53.336;-6.298;2023-02-19T02:34:23;102053.66;;;22.02;88.64
42621;BME280;28252;53.336;-6.298;2023-02-19T02:34:58;102056.38;;;22.02;88.61
42621;BME280;28252;53.336;-6.298;2023-02-19T02:36:33;102051.66;;;22.04;88.63
42621;BME280;28252;53.336;-6.298;2023-02-19T02:37:09;102048.94;;;22.04;88.74
42621;BME280;28252;53.336;-6.298;2023-02-19T02:37:42;102048.09;;;22.04;88.14
42621;BME280;28252;53.336;-6.298;2023-02-19T02:38:20;102056.09;;;22.05;88.03
42621;BME280;28252;53.336;-6.298;2023-02-19T02:39:01;102049.78;;;22.05;88.40
42621;BME280;28252;53.336;-6.298;2023-02-19T02:39:35;102049.94;;;22.03;89.03
42621;BME280;28252;53.336;-6.298;2023-02-19T02:40:13;102059.09;;;22.02;88.78
42621;BME280;28252;53.336;-6.298;2023-02-19T02:40:46;102061.81;;;22.02;88.41
42621;BME280;28252;53.336;-6.298;2023-02-19T02:41:22;102067.22;;;22.02;88.47
42621;BME280;28252;53.336;-6.298;2023-02-19T02:41:59;102058.41;;;22.00;88.55
42621;BME280;28252;53.336;-6.298;2023-02-19T02:42:58;102068.22;;;22.01;88.28
42621;BME280;28252;53.336;-6.298;2023-02-19T02:43:30;102072.66;;;22.02;88.01
42621;BME280;28252;53.336;-6.298;2023-02-19T02:44:01;102072.66;;;22.02;88.48
42621;BME280;28252;53.336;-6.298;2023-02-19T02:44:36;102069.09;;;22.01;88.81
42621;BME280;28252;53.336;-6.298;2023-02-19T02:46:09;102077.69;;;21.97;89.16
42621;BME280;28252;53.336;-6.298;2023-02-19T02:46:43;102075.94;;;21.96;88.44
42621;BME280;28252;53.336;-6.298;2023-02-19T02:47:17;102073.25;;;21.96;89.40
42621;BME280;28252;53.336;-6.298;2023-02-19T02:48:48;102071.56;;;21.95;88.72
42621;BME280;28252;53.336;-6.298;2023-02-19T02:49:27;102080.53;;;21.95;89.52
42621;BME280;28252;53.336;-6.298;2023-02-19T02:50:01;102078.66;;;21.96;89.26
42621;BME280;28252;53.336;-6.298;2023-02-19T02:50:40;102074.25;;;21.95;89.07
42621;BME280;28252;53.336;-6.298;2023-02-19T02:51:18;102071.56;;;21.95;89.02
42621;BME280;28252;53.336;-6.298;2023-02-19T02:52:15;102073.53;;;21.93;89.35
42621;BME280;28252;53.336;-6.298;2023-02-19T02:53:10;102072.69;;;21.92;88.98
42621;BME280;28252;53.336;-6.298;2023-02-19T02:54:21;102080.97;;;21.91;89.19
42621;BME280;28252;53.336;-6.298;2023-02-19T02:55:18;102079.28;;;21.90;89.08
42621;BME280;28252;53.336;-6.298;2023-02-19T02:55:54;102090.28;;;21.88;89.39
42621;BME280;28252;53.336;-6.298;2023-02-19T02:56:28;102085.84;;;21.87;89.72
42621;BME280;28252;53.336;-6.298;2023-02-19T02:57:01;102082.97;;;21.89;89.00
42621;BME280;28252;53.336;-6.298;2023-02-19T02:57:38;102083.97;;;21.88;89.13
42621;BME280;28252;53.336;-6.298;2023-02-19T02:58:11;102079.44;;;21.88;89.01
42621;BME280;28252;53.336;-6.298;2023-02-19T02:58:45;102091.25;;;21.87;89.49
42621;BME280;28252;53.336;-6.298;2023-02-19T02:59:17;102085.00;;;21.87;89.66
42621;BME280;28252;53.336;-6.298;2023-02-19T02:59:53;102092.25;;;21.86;89.30
42621;BME280;28252;53.336;-6.298;2023-02-19T03:00:31;102092.44;;;21.85;89.25
42621;BME280;28252;53.336;-6.298;2023-02-19T03:01:29;102095.44;;;21.81;90.21
42621;BME280;28252;53.336;-6.298;2023-02-19T03:02:25;102092.72;;;21.81;89.52
42621;BME280;28252;53.336;-6.298;2023-02-19T03:03:01;102090.00;;;21.81;90.02
42621;BME280;28252;53.336;-6.298;2023-02-19T03:03:35;102089.31;;;21.79;90.14
42621;BME280;28252;53.336;-6.298;2023-02-19T03:04:21;102092.16;;;21.78;90.21
42621;BME280;28252;53.336;-6.298;2023-02-19T03:05:51;102088.72;;;21.76;90.06
42621;BME280;28252;53.336;-6.298;2023-02-19T03:06:32;102088.72;;;21.76;91.24
42621;BME280;28252;53.336;-6.298;2023-02-19T03:07:06;102092.44;;;21.75;90.64
42621;BME280;28252;53.336;-6.298;2023-02-19T03:07:53;102088.91;;;21.74;90.80
42621;BME280;28252;53.336;-6.298;2023-02-19T03:08:33;102093.28;;;21.75;90.75
42621;BME280;28252;53.336;-6.298;2023-02-19T03:09:17;102096.28;;;21.72;90.72
42621;BME280;28252;53.336;-6.298;2023-02-19T03:09:50;102097.88;;;21.75;90.11
42621;BME280;28252;53.336;-6.298;2023-02-19T03:11:00;102096.16;;;21.74;90.63
42621;BME280;28252;53.336;-6.298;2023-02-19T03:11:28;102091.88;;;21.71;90.54
42621;BME280;28252;53.336;-6.298;2023-02-19T03:12:23;102099.00;;;21.72;90.33
42621;BME280;28252;53.336;-6.298;2023-02-19T03:13:27;102092.88;;;21.70;90.10
42621;BME280;28252;53.336;-6.298;2023-02-19T03:14:24;102093.72;;;21.71;90.98
42621;BME280;28252;53.336;-6.298;2023-02-19T03:15:16;102089.31;;;21.70;90.42
42621;BME280;28252;53.336;-6.298;2023-02-19T03:16:10;102095.59;;;21.70;90.39
42621;BME280;28252;53.336;-6.298;2023-02-19T03:17:12;102095.44;;;21.72;90.96
42621;BME280;28252;53.336;-6.298;2023-02-19T03:18:06;102093.72;;;21.71;90.08
42621;BME280;28252;53.336;-6.298;2023-02-19T03:18:58;102099.31;;;21.69;90.65
42621;BME280;28252;53.336;-6.298;2023-02-19T03:19:52;102099.31;;;21.69;90.45
42621;BME280;28252;53.336;-6.298;2023-02-19T03:20:26;102099.31;;;21.69;90.99
42621;BME280;28252;53.336;-6.298;2023-02-19T03:21:02;102095.03;;;21.67;90.72
42621;BME280;28252;53.336;-6.298;2023-02-19T03:21:42;102096.75;;;21.68;90.77
42621;BME280;28252;53.336;-6.298;2023-02-19T03:22:18;102095.19;;;21.65;91.38
42621;BME280;28252;53.336;-6.298;2023-02-19T03:22:50;102100.75;;;21.63;91.08
42621;BME280;28252;53.336;-6.298;2023-02-19T03:23:32;102092.47;;;21.65;90.78
42621;BME280;28252;53.336;-6.298;2023-02-19T03:24:27;102089.75;;;21.65;90.50
42621;BME280;28252;53.336;-6.298;2023-02-19T03:25:24;102090.78;;;21.64;91.04
42621;BME280;28252;53.336;-6.298;2023-02-19T03:26:19;102096.19;;;21.64;91.19
42621;BME280;28252;53.336;-6.298;2023-02-19T03:27:01;102094.47;;;21.63;91.04
42621;BME280;28252;53.336;-6.298;2023-02-19T03:27:42;102092.59;;;21.63;91.53
42621;BME280;28252;53.336;-6.298;2023-02-19T03:28:20;102090.03;;;21.62;91.66
42621;BME280;28252;53.336;-6.298;2023-02-19T03:29:16;102098.16;;;21.62;91.11